sensor_id;sensor_type;location;lat;lon;timestamp;temperature;humidity
15341;DHT22;7770;52.158;5.372;2022-07-29T00:00:36;16.20;99.90
15341;DHT22;7770;52.158;5.372;2022-07-29T00:03:22;16.10;99.90
15341;DHT22;7770;52.158;5.372;2022-07-29T00:06:08;16.10;99.90
15341;DHT22;7770;52.158;5.372;2022-07-29T00:08:54;16.00;99.90
15341;DHT22;7770;52.158;5.372;2022-07-29T00:11:40;16.00;99.90
15341;DHT22;7770;52.158;5.372;2022-07-29T00:14:27;15.90;99.90
15341;DHT22;7770;52.158;5.372;2022-07-29T00:17:13;15.90;99.90
15341;DHT22;7770;52.158;5.372;2022-07-29T00:19:59;15.90;99.90
15341;DHT22;7770;52.158;5.372;2022-07-29T00:22:45;15.80;99.90
15341;DHT22;7770;52.158;5.372;2022-07-29T00:25:32;15.80;99.90
15341;DHT22;7770;52.158;5.372;2022-07-29T00:28:17;15.80;99.90
15341;DHT22;7770;52.158;5.372;2022-07-29T00:31:04;15.80;99.90
15341;DHT22;7770;52.158;5.372;2022-07-29T00:33:50;15.80;99.90
15341;DHT22;7770;52.158;5.372;2022-07-29T00:36:36;15.70;99.90
15341;DHT22;7770;52.158;5.372;2022-07-29T00:39:22;15.70;99.90
15341;DHT22;7770;52.158;5.372;2022-07-29T00:42:08;15.70;99.90
15341;DHT22;7770;52.158;5.372;2022-07-29T00:44:55;15.70;99.90
15341;DHT22;7770;52.158;5.372;2022-07-29T00:47:41;15.60;99.90
15341;DHT22;7770;52.158;5.372;2022-07-29T00:50:27;15.60;99.90
15341;DHT22;7770;52.158;5.372;2022-07-29T00:53:13;15.50;99.90
15341;DHT22;7770;52.158;5.372;2022-07-29T00:55:59;15.50;99.90
15341;DHT22;7770;52.158;5.372;2022-07-29T00:58:47;15.40;99.90
15341;DHT22;7770;52.158;5.372;2022-07-29T01:01:33;15.40;99.90
15341;DHT22;7770;52.158;5.372;2022-07-29T01:04:20;15.50;99.90
15341;DHT22;7770;52.158;5.372;2022-07-29T01:07:07;15.50;99.90
15341;DHT22;7770;52.158;5.372;2022-07-29T01:09:54;15.50;99.90
15341;DHT22;7770;52.158;5.372;2022-07-29T01:12:42;15.50;99.90
15341;DHT22;7770;52.158;5.372;2022-07-29T01:15:29;15.50;99.90
15341;DHT22;7770;52.158;5.372;2022-07-29T01:18:34;15.50;99.90
15341;DHT22;7770;52.158;5.372;2022-07-29T01:21:44;15.50;99.90
15341;DHT22;7770;52.158;5.372;2022-07-29T01:24:58;15.40;99.90
15341;DHT22;7770;52.158;5.372;2022-07-29T01:31:09;15.30;99.90
15341;DHT22;7770;52.158;5.372;2022-07-29T01:33:58;15.30;99.90
15341;DHT22;7770;52.158;5.372;2022-07-29T01:36:55;15.20;99.90
15341;DHT22;7770;52.158;5.372;2022-07-29T01:39:52;15.30;99.90
15341;DHT22;7770;52.158;5.372;2022-07-29T01:42:45;15.20;99.90
15341;DHT22;7770;52.158;5.372;2022-07-29T01:45:43;15.20;99.90
15341;DHT22;7770;52.158;5.372;2022-07-29T01:48:57;15.10;99.90
15341;DHT22;7770;52.158;5.372;2022-07-29T01:51:59;15.00;99.90
15341;DHT22;7770;52.158;5.372;2022-07-29T01:54:56;15.00;99.90
15341;DHT22;7770;52.158;5.372;2022-07-29T01:57:46;15.00;99.90
15341;DHT22;7770;52.158;5.372;2022-07-29T02:00:34;15.00;99.90
15341;DHT22;7770;52.158;5.372;2022-07-29T02:03:21;15.00;99.90
15341;DHT22;7770;52.158;5.372;2022-07-29T02:06:09;15.00;99.90
15341;DHT22;7770;52.158;5.372;2022-07-29T02:08:58;15.00;99.90
15341;DHT22;7770;52.158;5.372;2022-07-29T02:11:49;15.00;99.90
15341;DHT22;7770;52.158;5.372;2022-07-29T02:14:40;15.00;99.90
15341;DHT22;7770;52.158;5.372;2022-07-29T02:17:45;15.00;99.90
15341;DHT22;7770;52.158;5.372;2022-07-29T02:20:36;15.20;99.90
15341;DHT22;7770;52.158;5.372;2022-07-29T02:23:24;15.20;99.90
15341;DHT22;7770;52.158;5.372;2022-07-29T02:26:11;15.30;99.90
15341;DHT22;7770;52.158;5.372;2022-07-29T02:28:58;15.30;99.90
15341;DHT22;7770;52.158;5.372;2022-07-29T02:31:46;15.30;99.90
15341;DHT22;7770;52.158;5.372;2022-07-29T02:34:33;15.20;99.90
15341;DHT22;7770;52.158;5.372;2022-07-29T02:37:20;15.20;99.90
15341;DHT22;7770;52.158;5.372;2022-07-29T02:40:10;15.20;99.90
15341;DHT22;7770;52.158;5.372;2022-07-29T02:42:57;15.20;99.90
15341;DHT22;7770;52.158;5.372;2022-07-29T02:45:45;15.20;99.90
15341;DHT22;7770;52.158;5.372;2022-07-29T02:48:51;15.20;99.90
15341;DHT22;7770;52.158;5.372;2022-07-29T02:51:57;15.20;99.90
15341;DHT22;7770;52.158;5.372;2022-07-29T02:57:51;15.20;99.90
15341;DHT22;7770;52.158;5.372;2022-07-29T03:00:44;15.20;99.90
15341;DHT22;7770;52.158;5.372;2022-07-29T03:03:36;15.20;99.90
15341;DHT22;7770;52.158;5.372;2022-07-29T03:06:25;15.20;99.90
15341;DHT22;7770;52.158;5.372;2022-07-29T03:09:13;15.20;99.90
15341;DHT22;7770;52.158;5.372;2022-07-29T03:12:00;15.20;99.90
15341;DHT22;7770;52.158;5.372;2022-07-29T03:14:47;15.20;99.90
15341;DHT22;7770;52.158;5.372;2022-07-29T03:17:34;15.20;99.90
15341;DHT22;7770;52.158;5.372;2022-07-29T03:20:21;15.20;99.90
15341;DHT22;7770;52.158;5.372;2022-07-29T03:23:08;15.30;99.90
15341;DHT22;7770;52.158;5.372;2022-07-29T03:25:55;15.20;99.90
15341;DHT22;7770;52.158;5.372;2022-07-29T03:28:41;15.20;99.90
15341;DHT22;7770;52.158;5.372;2022-07-29T03:31:27;15.20;99.90
15341;DHT22;7770;52.158;5.372;2022-07-29T03:34:13;15.20;99.90
15341;DHT22;7770;52.158;5.372;2022-07-29T03:36:59;15.30;99.90
15341;DHT22;7770;52.158;5.372;2022-07-29T03:39:45;15.30;99.90
15341;DHT22;7770;52.158;5.372;2022-07-29T03:42:34;15.30;99.90
15341;DHT22;7770;52.158;5.372;2022-07-29T03:45:22;15.30;99.90
15341;DHT22;7770;52.158;5.372;2022-07-29T03:48:10;15.30;99.90
15341;DHT22;7770;52.158;5.372;2022-07-29T03:50:58;15.30;99.90
15341;DHT22;7770;52.158;5.372;2022-07-29T03:53:44;15.30;99.90
15341;DHT22;7770;52.158;5.372;2022-07-29T03:56:32;15.30;99.90
15341;DHT22;7770;52.158;5.372;2022-07-29T03:59:21;15.30;99.90
15341;DHT22;7770;52.158;5.372;2022-07-29T04:02:09;15.20;99.90
15341;DHT22;7770;52.158;5.372;2022-07-29T04:04:56;15.20;99.90
15341;DHT22;7770;52.158;5.372;2022-07-29T04:07:47;15.20;99.90
15341;DHT22;7770;52.158;5.372;2022-07-29T04:10:33;15.20;99.90
15341;DHT22;7770;52.158;5.372;2022-07-29T04:13:20;15.20;99.90
15341;DHT22;7770;52.158;5.372;2022-07-29T04:16:06;15.20;99.90
15341;DHT22;7770;52.158;5.372;2022-07-29T04:18:52;15.30;99.90
15341;DHT22;7770;52.158;5.372;2022-07-29T04:21:39;15.30;99.90
15341;DHT22;7770;52.158;5.372;2022-07-29T04:24:26;15.30;99.90
15341;DHT22;7770;52.158;5.372;2022-07-29T04:27:13;15.30;99.90
15341;DHT22;7770;52.158;5.372;2022-07-29T04:29:59;15.30;99.90
15341;DHT22;7770;52.158;5.372;2022-07-29T04:32:45;15.30;99.90
15341;DHT22;7770;52.158;5.372;2022-07-29T04:35:34;15.30;99.90
15341;DHT22;7770;52.158;5.372;2022-07-29T04:38:21;15.30;99.90
15341;DHT22;7770;52.158;5.372;2022-07-29T04:41:07;15.30;99.90
15341;DHT22;7770;52.158;5.372;2022-07-29T04:43:54;15.40;99.90
15341;DHT22;7770;52.158;5.372;2022-07-29T04:46:40;15.40;99.90
15341;DHT22;7770;52.158;5.372;2022-07-29T04:49:26;15.40;99.90
15341;DHT22;7770;52.158;5.372;2022-07-29T04:52:12;15.50;99.90
15341;DHT22;7770;52.158;5.372;2022-07-29T04:54:58;15.50;99.90
15341;DHT22;7770;52.158;5.372;2022-07-29T04:57:45;15.50;99.90
15341;DHT22;7770;52.158;5.372;2022-07-29T05:00:31;15.50;99.90
15341;DHT22;7770;52.158;5.372;2022-07-29T05:03:17;15.60;99.90
15341;DHT22;7770;52.158;5.372;2022-07-29T05:06:03;15.60;99.90
15341;DHT22;7770;52.158;5.372;2022-07-29T05:08:49;15.60;99.90
15341;DHT22;7770;52.158;5.372;2022-07-29T05:11:35;15.70;99.90
15341;DHT22;7770;52.158;5.372;2022-07-29T05:14:21;15.70;99.90
15341;DHT22;7770;52.158;5.372;2022-07-29T05:17:07;15.80;99.90
15341;DHT22;7770;52.158;5.372;2022-07-29T05:19:53;15.70;99.90
15341;DHT22;7770;52.158;5.372;2022-07-29T05:22:39;15.70;99.90
15341;DHT22;7770;52.158;5.372;2022-07-29T05:25:26;15.80;99.90
15341;DHT22;7770;52.158;5.372;2022-07-29T05:28:13;15.90;99.90
15341;DHT22;7770;52.158;5.372;2022-07-29T05:30:59;16.00;99.90
15341;DHT22;7770;52.158;5.372;2022-07-29T05:33:45;16.10;99.90
15341;DHT22;7770;52.158;5.372;2022-07-29T05:36:31;16.20;99.90
15341;DHT22;7770;52.158;5.372;2022-07-29T05:39:17;16.30;99.90
15341;DHT22;7770;52.158;5.372;2022-07-29T05:42:08;16.50;99.90
15341;DHT22;7770;52.158;5.372;2022-07-29T05:44:55;16.70;99.90
15341;DHT22;7770;52.158;5.372;2022-07-29T05:47:41;16.90;99.90
15341;DHT22;7770;52.158;5.372;2022-07-29T05:50:27;17.00;99.90
15341;DHT22;7770;52.158;5.372;2022-07-29T05:53:13;17.00;99.90
15341;DHT22;7770;52.158;5.372;2022-07-29T05:56:03;17.30;99.90
15341;DHT22;7770;52.158;5.372;2022-07-29T05:58:50;18.50;99.90
15341;DHT22;7770;52.158;5.372;2022-07-29T06:01:37;19.70;99.90
15341;DHT22;7770;52.158;5.372;2022-07-29T06:04:24;20.60;99.90
15341;DHT22;7770;52.158;5.372;2022-07-29T06:07:11;21.50;99.90
15341;DHT22;7770;52.158;5.372;2022-07-29T06:09:56;21.80;99.90
15341;DHT22;7770;52.158;5.372;2022-07-29T06:12:42;21.30;99.90
15341;DHT22;7770;52.158;5.372;2022-07-29T06:15:28;21.30;99.90
15341;DHT22;7770;52.158;5.372;2022-07-29T06:18:15;21.80;99.90
15341;DHT22;7770;52.158;5.372;2022-07-29T06:21:01;21.80;99.90
15341;DHT22;7770;52.158;5.372;2022-07-29T06:23:46;21.50;99.90
15341;DHT22;7770;52.158;5.372;2022-07-29T06:26:32;21.40;99.90
15341;DHT22;7770;52.158;5.372;2022-07-29T06:29:19;21.00;99.90
15341;DHT22;7770;52.158;5.372;2022-07-29T06:32:05;20.80;99.90
15341;DHT22;7770;52.158;5.372;2022-07-29T06:34:51;20.30;99.90
15341;DHT22;7770;52.158;5.372;2022-07-29T06:37:37;19.30;99.90
15341;DHT22;7770;52.158;5.372;2022-07-29T06:40:23;18.60;99.90
15341;DHT22;7770;52.158;5.372;2022-07-29T06:43:37;18.10;99.90
15341;DHT22;7770;52.158;5.372;2022-07-29T06:46:29;18.20;99.90
15341;DHT22;7770;52.158;5.372;2022-07-29T06:49:15;17.80;99.90
15341;DHT22;7770;52.158;5.372;2022-07-29T06:52:01;17.80;99.90
15341;DHT22;7770;52.158;5.372;2022-07-29T06:54:47;18.00;99.90
15341;DHT22;7770;52.158;5.372;2022-07-29T06:57:34;18.10;99.90
15341;DHT22;7770;52.158;5.372;2022-07-29T07:00:20;18.50;99.90
15341;DHT22;7770;52.158;5.372;2022-07-29T07:03:06;19.00;99.90
15341;DHT22;7770;52.158;5.372;2022-07-29T07:05:53;19.10;99.90
15341;DHT22;7770;52.158;5.372;2022-07-29T07:08:40;19.30;99.90
15341;DHT22;7770;52.158;5.372;2022-07-29T07:11:26;19.60;99.90
15341;DHT22;7770;52.158;5.372;2022-07-29T07:14:12;19.90;99.90
15341;DHT22;7770;52.158;5.372;2022-07-29T07:16:59;20.10;99.90
15341;DHT22;7770;52.158;5.372;2022-07-29T07:19:45;19.90;99.90
15341;DHT22;7770;52.158;5.372;2022-07-29T07:22:32;20.70;99.90
15341;DHT22;7770;52.158;5.372;2022-07-29T07:25:18;21.90;99.90
15341;DHT22;7770;52.158;5.372;2022-07-29T07:28:04;23.20;99.90
15341;DHT22;7770;52.158;5.372;2022-07-29T07:30:50;24.80;98.80
15341;DHT22;7770;52.158;5.372;2022-07-29T07:33:37;25.40;97.40
15341;DHT22;7770;52.158;5.372;2022-07-29T07:36:23;26.10;96.80
15341;DHT22;7770;52.158;5.372;2022-07-29T07:39:09;26.20;96.10
15341;DHT22;7770;52.158;5.372;2022-07-29T07:41:55;26.10;96.10
15341;DHT22;7770;52.158;5.372;2022-07-29T07:44:41;26.10;96.10
15341;DHT22;7770;52.158;5.372;2022-07-29T07:47:27;26.20;96.00
15341;DHT22;7770;52.158;5.372;2022-07-29T07:50:13;25.90;96.30
15341;DHT22;7770;52.158;5.372;2022-07-29T07:52:59;25.90;96.20
15341;DHT22;7770;52.158;5.372;2022-07-29T07:55:47;26.20;95.80
15341;DHT22;7770;52.158;5.372;2022-07-29T07:58:33;26.00;96.00
15341;DHT22;7770;52.158;5.372;2022-07-29T08:01:20;25.50;96.10
15341;DHT22;7770;52.158;5.372;2022-07-29T08:04:09;25.90;96.10
15341;DHT22;7770;52.158;5.372;2022-07-29T08:06:56;26.80;95.30
15341;DHT22;7770;52.158;5.372;2022-07-29T08:09:42;27.70;94.70
15341;DHT22;7770;52.158;5.372;2022-07-29T08:12:28;27.70;94.30
15341;DHT22;7770;52.158;5.372;2022-07-29T08:15:14;27.80;94.40
15341;DHT22;7770;52.158;5.372;2022-07-29T08:18:01;27.70;94.00
15341;DHT22;7770;52.158;5.372;2022-07-29T08:20:47;28.00;94.00
15341;DHT22;7770;52.158;5.372;2022-07-29T08:23:33;27.50;94.30
15341;DHT22;7770;52.158;5.372;2022-07-29T08:26:30;27.30;95.00
15341;DHT22;7770;52.158;5.372;2022-07-29T08:29:17;28.70;94.10
15341;DHT22;7770;52.158;5.372;2022-07-29T08:32:03;28.60;93.80
15341;DHT22;7770;52.158;5.372;2022-07-29T08:34:50;28.40;93.60
15341;DHT22;7770;52.158;5.372;2022-07-29T08:37:36;28.70;93.90
15341;DHT22;7770;52.158;5.372;2022-07-29T08:40:22;31.30;93.00
15341;DHT22;7770;52.158;5.372;2022-07-29T08:43:09;35.60;90.40
15341;DHT22;7770;52.158;5.372;2022-07-29T08:45:55;39.10;85.00
15341;DHT22;7770;52.158;5.372;2022-07-29T08:48:41;39.00;83.10
15341;DHT22;7770;52.158;5.372;2022-07-29T08:51:28;39.00;82.40
15341;DHT22;7770;52.158;5.372;2022-07-29T08:54:17;38.60;82.10
15341;DHT22;7770;52.158;5.372;2022-07-29T08:57:04;38.40;82.00
15341;DHT22;7770;52.158;5.372;2022-07-29T08:59:52;39.60;81.70
15341;DHT22;7770;52.158;5.372;2022-07-29T09:02:41;41.60;79.70
15341;DHT22;7770;52.158;5.372;2022-07-29T09:05:31;43.70;76.70
15341;DHT22;7770;52.158;5.372;2022-07-29T09:08:18;42.70;76.50
15341;DHT22;7770;52.158;5.372;2022-07-29T09:11:05;42.10;76.60
15341;DHT22;7770;52.158;5.372;2022-07-29T09:13:53;42.40;76.30
15341;DHT22;7770;52.158;5.372;2022-07-29T09:16:54;41.90;75.50
15341;DHT22;7770;52.158;5.372;2022-07-29T09:19:41;42.20;75.80
15341;DHT22;7770;52.158;5.372;2022-07-29T09:22:30;42.30;75.40
15341;DHT22;7770;52.158;5.372;2022-07-29T09:25:35;41.70;74.20
15341;DHT22;7770;52.158;5.372;2022-07-29T09:28:22;40.80;78.10
15341;DHT22;7770;52.158;5.372;2022-07-29T09:31:09;43.20;76.40
15341;DHT22;7770;52.158;5.372;2022-07-29T09:33:58;44.50;74.40
15341;DHT22;7770;52.158;5.372;2022-07-29T09:36:47;45.20;73.20
15341;DHT22;7770;52.158;5.372;2022-07-29T09:42:29;43.50;72.80
15341;DHT22;7770;52.158;5.372;2022-07-29T09:45:32;43.70;74.10
15341;DHT22;7770;52.158;5.372;2022-07-29T09:48:24;43.40;72.40
15341;DHT22;7770;52.158;5.372;2022-07-29T09:51:18;43.00;73.30
15341;DHT22;7770;52.158;5.372;2022-07-29T09:54:25;43.20;75.40
15341;DHT22;7770;52.158;5.372;2022-07-29T09:57:27;43.40;73.00
15341;DHT22;7770;52.158;5.372;2022-07-29T10:00:15;42.70;73.50
15341;DHT22;7770;52.158;5.372;2022-07-29T10:03:03;43.60;73.60
15341;DHT22;7770;52.158;5.372;2022-07-29T10:08:51;41.20;75.80
15341;DHT22;7770;52.158;5.372;2022-07-29T10:11:38;40.70;75.30
15341;DHT22;7770;52.158;5.372;2022-07-29T10:14:24;39.90;77.10
15341;DHT22;7770;52.158;5.372;2022-07-29T10:17:10;37.40;78.00
15341;DHT22;7770;52.158;5.372;2022-07-29T10:19:56;37.10;78.80
15341;DHT22;7770;52.158;5.372;2022-07-29T10:22:42;38.80;78.30
15341;DHT22;7770;52.158;5.372;2022-07-29T10:25:29;39.50;78.00
15341;DHT22;7770;52.158;5.372;2022-07-29T10:28:16;42.20;75.80
15341;DHT22;7770;52.158;5.372;2022-07-29T10:31:05;44.30;73.80
15341;DHT22;7770;52.158;5.372;2022-07-29T10:34:07;45.50;72.60
15341;DHT22;7770;52.158;5.372;2022-07-29T10:40:42;43.60;71.40
15341;DHT22;7770;52.158;5.372;2022-07-29T10:44:14;41.70;73.70
15341;DHT22;7770;52.158;5.372;2022-07-29T10:47:00;44.30;72.60
15341;DHT22;7770;52.158;5.372;2022-07-29T10:50:00;43.50;72.60
15341;DHT22;7770;52.158;5.372;2022-07-29T10:55:39;44.20;70.80
15341;DHT22;7770;52.158;5.372;2022-07-29T10:58:34;44.80;71.00
15341;DHT22;7770;52.158;5.372;2022-07-29T11:01:30;44.60;71.40
15341;DHT22;7770;52.158;5.372;2022-07-29T11:07:29;43.90;72.40
15341;DHT22;7770;52.158;5.372;2022-07-29T11:13:01;39.80;72.50
15341;DHT22;7770;52.158;5.372;2022-07-29T11:15:57;40.40;74.00
15341;DHT22;7770;52.158;5.372;2022-07-29T11:21:57;42.30;73.50
15341;DHT22;7770;52.158;5.372;2022-07-29T11:24:43;43.10;72.30
15341;DHT22;7770;52.158;5.372;2022-07-29T11:27:32;43.10;71.90
15341;DHT22;7770;52.158;5.372;2022-07-29T11:30:51;41.20;72.70
15341;DHT22;7770;52.158;5.372;2022-07-29T11:33:38;42.40;72.50
15341;DHT22;7770;52.158;5.372;2022-07-29T11:36:25;42.90;73.40
15341;DHT22;7770;52.158;5.372;2022-07-29T11:39:27;43.80;74.20
15341;DHT22;7770;52.158;5.372;2022-07-29T11:45:11;34.00;80.50
15341;DHT22;7770;52.158;5.372;2022-07-29T11:47:59;35.50;81.60
15341;DHT22;7770;52.158;5.372;2022-07-29T11:50:45;39.40;78.10
15341;DHT22;7770;52.158;5.372;2022-07-29T11:53:33;39.90;75.20
15341;DHT22;7770;52.158;5.372;2022-07-29T11:56:21;38.80;75.20
15341;DHT22;7770;52.158;5.372;2022-07-29T11:59:07;40.10;75.90
15341;DHT22;7770;52.158;5.372;2022-07-29T12:01:56;41.40;73.90
15341;DHT22;7770;52.158;5.372;2022-07-29T12:04:53;40.70;76.50
15341;DHT22;7770;52.158;5.372;2022-07-29T12:07:40;41.50;76.80
15341;DHT22;7770;52.158;5.372;2022-07-29T12:10:30;42.00;76.50
15341;DHT22;7770;52.158;5.372;2022-07-29T12:13:19;41.80;76.50
15341;DHT22;7770;52.158;5.372;2022-07-29T12:16:05;41.90;76.00
15341;DHT22;7770;52.158;5.372;2022-07-29T12:18:59;40.70;75.90
15341;DHT22;7770;52.158;5.372;2022-07-29T12:21:54;40.40;76.70
15341;DHT22;7770;52.158;5.372;2022-07-29T12:24:44;38.90;77.20
15341;DHT22;7770;52.158;5.372;2022-07-29T12:27:30;37.50;78.70
15341;DHT22;7770;52.158;5.372;2022-07-29T12:30:18;34.70;81.10
15341;DHT22;7770;52.158;5.372;2022-07-29T12:33:22;33.90;82.10
15341;DHT22;7770;52.158;5.372;2022-07-29T12:36:10;32.80;83.40
15341;DHT22;7770;52.158;5.372;2022-07-29T12:38:56;31.70;84.10
15341;DHT22;7770;52.158;5.372;2022-07-29T12:41:42;30.70;87.00
15341;DHT22;7770;52.158;5.372;2022-07-29T12:44:45;30.00;88.00
15341;DHT22;7770;52.158;5.372;2022-07-29T12:47:33;30.30;88.80
15341;DHT22;7770;52.158;5.372;2022-07-29T12:50:19;30.30;89.30
15341;DHT22;7770;52.158;5.372;2022-07-29T12:53:10;30.30;89.40
15341;DHT22;7770;52.158;5.372;2022-07-29T12:55:58;30.40;89.10
15341;DHT22;7770;52.158;5.372;2022-07-29T12:58:47;30.70;88.40
15341;DHT22;7770;52.158;5.372;2022-07-29T13:01:36;30.70;89.20
15341;DHT22;7770;52.158;5.372;2022-07-29T13:04:27;30.60;87.90
15341;DHT22;7770;52.158;5.372;2022-07-29T13:07:25;30.10;89.10
15341;DHT22;7770;52.158;5.372;2022-07-29T13:10:19;29.30;90.10
15341;DHT22;7770;52.158;5.372;2022-07-29T13:13:11;29.40;91.50
15341;DHT22;7770;52.158;5.372;2022-07-29T13:16:07;28.10;92.20
15341;DHT22;7770;52.158;5.372;2022-07-29T13:19:09;28.50;92.00
15341;DHT22;7770;52.158;5.372;2022-07-29T13:21:56;29.00;91.80
15341;DHT22;7770;52.158;5.372;2022-07-29T13:24:59;29.00;92.00
15341;DHT22;7770;52.158;5.372;2022-07-29T13:27:49;28.70;91.80
15341;DHT22;7770;52.158;5.372;2022-07-29T13:30:35;28.60;92.00
15341;DHT22;7770;52.158;5.372;2022-07-29T13:33:21;28.00;91.80
15341;DHT22;7770;52.158;5.372;2022-07-29T13:36:07;28.00;92.20
15341;DHT22;7770;52.158;5.372;2022-07-29T13:38:53;27.90;92.70
15341;DHT22;7770;52.158;5.372;2022-07-29T13:41:39;28.00;92.50
15341;DHT22;7770;52.158;5.372;2022-07-29T13:44:25;28.00;92.70
15341;DHT22;7770;52.158;5.372;2022-07-29T13:47:11;28.00;92.50
15341;DHT22;7770;52.158;5.372;2022-07-29T13:49:58;28.00;92.30
15341;DHT22;7770;52.158;5.372;2022-07-29T13:52:48;28.00;92.70
15341;DHT22;7770;52.158;5.372;2022-07-29T13:55:35;28.00;92.30
15341;DHT22;7770;52.158;5.372;2022-07-29T13:58:21;27.70;92.70
15341;DHT22;7770;52.158;5.372;2022-07-29T14:01:07;27.70;92.90
15341;DHT22;7770;52.158;5.372;2022-07-29T14:03:54;27.60;92.80
15341;DHT22;7770;52.158;5.372;2022-07-29T14:06:40;27.50;92.60
15341;DHT22;7770;52.158;5.372;2022-07-29T14:09:26;27.40;92.90
15341;DHT22;7770;52.158;5.372;2022-07-29T14:12:12;27.40;93.20
15341;DHT22;7770;52.158;5.372;2022-07-29T14:14:59;27.20;93.20
15341;DHT22;7770;52.158;5.372;2022-07-29T14:17:45;27.20;92.90
15341;DHT22;7770;52.158;5.372;2022-07-29T14:20:31;27.20;92.60
15341;DHT22;7770;52.158;5.372;2022-07-29T14:23:17;27.30;92.10
15341;DHT22;7770;52.158;5.372;2022-07-29T14:26:03;27.00;92.40
15341;DHT22;7770;52.158;5.372;2022-07-29T14:28:49;26.70;92.80
15341;DHT22;7770;52.158;5.372;2022-07-29T14:31:35;26.50;93.00
15341;DHT22;7770;52.158;5.372;2022-07-29T14:34:21;26.70;92.50
15341;DHT22;7770;52.158;5.372;2022-07-29T14:37:08;26.50;92.50
15341;DHT22;7770;52.158;5.372;2022-07-29T14:39:54;26.40;92.50
15341;DHT22;7770;52.158;5.372;2022-07-29T14:42:44;26.60;92.50
15341;DHT22;7770;52.158;5.372;2022-07-29T14:45:30;26.80;92.70
15341;DHT22;7770;52.158;5.372;2022-07-29T14:48:17;26.60;93.10
15341;DHT22;7770;52.158;5.372;2022-07-29T14:51:03;26.50;92.60
15341;DHT22;7770;52.158;5.372;2022-07-29T14:53:49;26.50;92.60
15341;DHT22;7770;52.158;5.372;2022-07-29T14:56:35;26.40;91.90
15341;DHT22;7770;52.158;5.372;2022-07-29T14:59:21;26.40;92.50
15341;DHT22;7770;52.158;5.372;2022-07-29T15:02:08;26.20;93.00
15341;DHT22;7770;52.158;5.372;2022-07-29T15:04:54;26.20;92.80
15341;DHT22;7770;52.158;5.372;2022-07-29T15:07:41;26.20;92.70
15341;DHT22;7770;52.158;5.372;2022-07-29T15:10:27;26.10;93.30
15341;DHT22;7770;52.158;5.372;2022-07-29T15:13:13;26.10;93.70
15341;DHT22;7770;52.158;5.372;2022-07-29T15:15:59;26.00;93.30
15341;DHT22;7770;52.158;5.372;2022-07-29T15:18:45;26.00;93.20
15341;DHT22;7770;52.158;5.372;2022-07-29T15:21:31;25.90;93.20
15341;DHT22;7770;52.158;5.372;2022-07-29T15:24:18;25.80;93.60
15341;DHT22;7770;52.158;5.372;2022-07-29T15:27:04;25.70;93.00
15341;DHT22;7770;52.158;5.372;2022-07-29T15:29:50;25.70;93.70
15341;DHT22;7770;52.158;5.372;2022-07-29T15:32:36;25.80;93.50
15341;DHT22;7770;52.158;5.372;2022-07-29T15:35:23;25.60;93.50
15341;DHT22;7770;52.158;5.372;2022-07-29T15:38:09;25.50;93.30
15341;DHT22;7770;52.158;5.372;2022-07-29T15:40:55;25.40;93.40
15341;DHT22;7770;52.158;5.372;2022-07-29T15:43:45;25.20;93.30
15341;DHT22;7770;52.158;5.372;2022-07-29T15:46:33;25.30;93.50
15341;DHT22;7770;52.158;5.372;2022-07-29T15:49:39;25.30;93.40
15341;DHT22;7770;52.158;5.372;2022-07-29T15:52:25;25.30;93.40
15341;DHT22;7770;52.158;5.372;2022-07-29T15:55:11;25.20;93.10
15341;DHT22;7770;52.158;5.372;2022-07-29T15:57:57;25.20;93.60
15341;DHT22;7770;52.158;5.372;2022-07-29T16:00:43;25.30;92.80
15341;DHT22;7770;52.158;5.372;2022-07-29T16:03:29;25.20;92.70
15341;DHT22;7770;52.158;5.372;2022-07-29T16:06:15;25.10;92.80
15341;DHT22;7770;52.158;5.372;2022-07-29T16:09:02;25.10;92.90
15341;DHT22;7770;52.158;5.372;2022-07-29T16:11:48;25.00;92.80
15341;DHT22;7770;52.158;5.372;2022-07-29T16:14:38;25.00;92.90
15341;DHT22;7770;52.158;5.372;2022-07-29T16:17:24;24.90;92.80
15341;DHT22;7770;52.158;5.372;2022-07-29T16:20:10;24.80;92.60
15341;DHT22;7770;52.158;5.372;2022-07-29T16:22:56;24.80;93.20
15341;DHT22;7770;52.158;5.372;2022-07-29T16:25:42;24.70;92.80
15341;DHT22;7770;52.158;5.372;2022-07-29T16:28:28;24.80;93.20
15341;DHT22;7770;52.158;5.372;2022-07-29T16:31:15;24.90;93.20
15341;DHT22;7770;52.158;5.372;2022-07-29T16:34:02;24.80;93.20
15341;DHT22;7770;52.158;5.372;2022-07-29T16:36:48;24.70;93.50
15341;DHT22;7770;52.158;5.372;2022-07-29T16:39:34;24.70;93.40
15341;DHT22;7770;52.158;5.372;2022-07-29T16:42:20;24.70;93.40
15341;DHT22;7770;52.158;5.372;2022-07-29T16:45:07;24.70;92.90
15341;DHT22;7770;52.158;5.372;2022-07-29T16:47:54;24.70;93.40
15341;DHT22;7770;52.158;5.372;2022-07-29T16:50:40;24.50;93.50
15341;DHT22;7770;52.158;5.372;2022-07-29T16:53:26;24.50;93.80
15341;DHT22;7770;52.158;5.372;2022-07-29T16:56:12;24.40;94.10
15341;DHT22;7770;52.158;5.372;2022-07-29T16:58:58;24.40;94.30
15341;DHT22;7770;52.158;5.372;2022-07-29T17:01:45;24.30;94.10
15341;DHT22;7770;52.158;5.372;2022-07-29T17:04:30;24.20;94.40
15341;DHT22;7770;52.158;5.372;2022-07-29T17:07:16;24.20;94.40
15341;DHT22;7770;52.158;5.372;2022-07-29T17:10:04;24.20;94.30
15341;DHT22;7770;52.158;5.372;2022-07-29T17:12:52;24.10;94.30
15341;DHT22;7770;52.158;5.372;2022-07-29T17:15:38;24.00;94.30
15341;DHT22;7770;52.158;5.372;2022-07-29T17:18:24;23.90;94.50
15341;DHT22;7770;52.158;5.372;2022-07-29T17:21:10;23.90;94.50
15341;DHT22;7770;52.158;5.372;2022-07-29T17:23:56;23.80;94.40
15341;DHT22;7770;52.158;5.372;2022-07-29T17:26:43;23.80;94.60
15341;DHT22;7770;52.158;5.372;2022-07-29T17:29:29;23.70;95.10
15341;DHT22;7770;52.158;5.372;2022-07-29T17:32:16;23.50;95.10
15341;DHT22;7770;52.158;5.372;2022-07-29T17:35:02;23.50;95.30
15341;DHT22;7770;52.158;5.372;2022-07-29T17:38:10;23.40;95.60
15341;DHT22;7770;52.158;5.372;2022-07-29T17:40:56;23.40;95.50
15341;DHT22;7770;52.158;5.372;2022-07-29T17:43:42;23.30;95.70
15341;DHT22;7770;52.158;5.372;2022-07-29T17:46:28;23.30;95.60
15341;DHT22;7770;52.158;5.372;2022-07-29T17:49:14;23.20;96.10
15341;DHT22;7770;52.158;5.372;2022-07-29T17:52:00;23.20;96.00
15341;DHT22;7770;52.158;5.372;2022-07-29T17:54:46;23.10;96.30
15341;DHT22;7770;52.158;5.372;2022-07-29T17:57:33;23.00;97.60
15341;DHT22;7770;52.158;5.372;2022-07-29T18:00:19;22.90;97.20
15341;DHT22;7770;52.158;5.372;2022-07-29T18:03:07;22.80;97.90
15341;DHT22;7770;52.158;5.372;2022-07-29T18:05:53;22.80;98.10
15341;DHT22;7770;52.158;5.372;2022-07-29T18:08:40;22.60;98.40
15341;DHT22;7770;52.158;5.372;2022-07-29T18:11:26;22.50;98.80
15341;DHT22;7770;52.158;5.372;2022-07-29T18:14:13;22.40;98.60
15341;DHT22;7770;52.158;5.372;2022-07-29T18:16:59;22.40;99.60
15341;DHT22;7770;52.158;5.372;2022-07-29T18:19:45;22.30;99.40
15341;DHT22;7770;52.158;5.372;2022-07-29T18:22:31;22.20;99.90
15341;DHT22;7770;52.158;5.372;2022-07-29T18:25:17;22.20;99.90
15341;DHT22;7770;52.158;5.372;2022-07-29T18:28:04;22.10;99.90
15341;DHT22;7770;52.158;5.372;2022-07-29T18:30:51;22.00;99.90